createdAt,value
2023-02-22T00:00:03.401Z,99904.47
2023-02-22T00:00:43.305Z,99901.72
2023-02-22T00:01:23.389Z,99903.66
2023-02-22T00:02:04.225Z,99904.97
2023-02-22T00:02:44.488Z,99901.44
2023-02-22T00:03:25.373Z,99903.56
2023-02-22T00:04:06.323Z,99900.03
2023-02-22T00:04:45.787Z,99901.94
2023-02-22T00:05:24.271Z,99900.56
2023-02-22T00:06:03.443Z,99902.25
2023-02-22T00:06:42.847Z,99900.31
2023-02-22T00:07:23.545Z,99895.69
2023-02-22T00:08:02.741Z,99898.41
2023-02-22T00:08:43.058Z,99898.41
2023-02-22T00:09:22.823Z,99895.16
2023-02-22T00:10:02.102Z,99894.88
2023-02-22T00:10:42.880Z,99897.88
2023-02-22T00:11:22.532Z,99893.25
2023-02-22T00:12:03.794Z,99894.34
2023-02-22T00:12:44.204Z,99897.38
2023-02-22T00:13:24.109Z,99897.88
2023-02-22T00:14:04.984Z,99892.44
2023-02-22T00:14:44.093Z,99899.00
2023-02-22T00:15:24.035Z,99890.28
2023-02-22T00:16:03.029Z,99902.25
2023-02-22T00:16:42.442Z,99892.94
2023-02-22T00:17:23.456Z,99895.09
2023-02-22T00:18:04.455Z,99888.00
2023-02-22T00:18:44.528Z,99886.91
2023-02-22T00:19:25.901Z,99889.91
2023-02-22T00:20:06.596Z,99885.03
2023-02-22T00:20:46.304Z,99891.31
2023-02-22T00:21:25.298Z,99884.25
2023-02-22T00:22:04.502Z,99879.06
2023-02-22T00:22:44.340Z,99878.47
2023-02-22T00:23:24.473Z,99878.78
2023-02-22T00:24:05.326Z,99881.50
2023-02-22T00:24:45.566Z,99876.34
2023-02-22T00:25:26.304Z,99877.66
2023-02-22T00:26:06.283Z,99874.13
2023-02-22T00:26:45.847Z,99876.56
2023-02-22T00:27:24.939Z,99877.97
2023-02-22T00:28:04.030Z,99879.59
2023-02-22T00:28:43.464Z,99877.16
2023-02-22T00:29:23.194Z,99874.72
2023-02-22T00:30:05.621Z,99873.91
2023-02-22T00:30:45.164Z,99874.13
2023-02-22T00:31:26.004Z,99874.13
2023-02-22T00:32:05.036Z,99874.94
2023-02-22T00:32:44.076Z,99874.13
2023-02-22T00:33:24.852Z,99875.44
2023-02-22T00:34:04.780Z,99871.91
2023-02-22T00:34:44.416Z,99874.94
2023-02-22T00:35:25.328Z,99873.31
2023-02-22T00:36:04.441Z,99874.94
2023-02-22T00:36:44.384Z,99873.31
2023-02-22T00:37:23.508Z,99866.22
2023-02-22T00:38:02.807Z,99876.03
2023-02-22T00:38:42.144Z,99869.78
2023-02-22T00:39:22.007Z,99868.97
2023-02-22T00:40:01.698Z,99870.28
2023-02-22T00:40:41.288Z,99877.16
2023-02-22T00:41:21.324Z,99867.34
2023-02-22T00:42:01.617Z,99879.06
2023-02-22T00:42:40.720Z,99869.25
2023-02-22T00:43:20.183Z,99873.91
2023-02-22T00:44:01.195Z,99872.50
2023-02-22T00:44:40.553Z,99873.31
2023-02-22T00:45:21.093Z,99876.34
2023-02-22T00:46:01.237Z,99873.41
2023-02-22T00:46:42.866Z,99869.03
2023-02-22T00:47:24.101Z,99878.56
2023-02-22T00:48:03.979Z,99867.03
2023-02-22T00:48:43.127Z,99872.00
2023-02-22T00:49:23.224Z,99872.00
2023-02-22T00:50:04.101Z,99873.91
2023-02-22T00:50:44.297Z,99861.06
2023-02-22T00:51:24.938Z,99868.97
2023-02-22T00:52:05.183Z,99862.38
2023-02-22T00:52:45.128Z,99864.31
2023-02-22T00:53:24.941Z,99864.00
2023-02-22T00:54:04.422Z,99858.03
2023-02-22T00:54:44.205Z,99863.78
2023-02-22T00:55:25.571Z,99862.97
2023-02-22T00:56:05.705Z,99863.28
2023-02-22T00:56:46.599Z,99858.41
2023-02-22T00:57:25.850Z,99862.78
2023-02-22T00:58:06.804Z,99862.47
2023-02-22T00:58:45.319Z,99861.66
2023-02-22T00:59:24.251Z,99863.78
2023-02-22T01:00:05.115Z,99862.97
2023-02-22T01:00:44.153Z,99852.06
2023-02-22T01:01:23.680Z,99856.72
2023-02-22T01:02:02.287Z,99854.19
2023-02-22T01:02:41.763Z,99853.91
2023-02-22T01:03:20.559Z,99860.75
2023-02-22T01:03:59.228Z,99855.09
2023-02-22T01:04:38.678Z,99852.56
2023-02-22T01:05:19.891Z,99857.75
2023-02-22T01:05:59.970Z,99851.75
2023-02-22T01:06:40.190Z,99849.34
2023-02-22T01:07:20.750Z,99851.03
2023-02-22T01:08:00.741Z,99855.31
2023-02-22T01:08:40.927Z,99852.78
2023-02-22T01:09:20.199Z,99854.19
2023-02-22T01:09:59.234Z,99847.13
2023-02-22T01:10:38.341Z,99853.09
2023-02-22T01:11:17.838Z,99857.75
2023-02-22T01:11:58.298Z,99851.16
2023-02-22T01:12:39.270Z,99857.44
2023-02-22T01:13:20.147Z,99854.72
2023-02-22T01:14:00.426Z,99850.34
2023-02-22T01:14:40.622Z,99853.69
2023-02-22T01:15:20.636Z,99848.22
2023-02-22T01:16:00.754Z,99857.44
2023-02-22T01:16:40.299Z,99844.38
2023-02-22T01:17:21.226Z,99846.00
2023-02-22T01:18:00.924Z,99846.00
2023-02-22T01:18:40.726Z,99850.66
2023-02-22T01:19:21.239Z,99847.63
2023-02-22T01:20:01.059Z,99847.63
2023-02-22T01:20:42.056Z,99841.66
2023-02-22T01:21:21.357Z,99848.22
2023-02-22T01:22:00.281Z,99850.94
2023-02-22T01:22:40.707Z,99850.13
2023-02-22T01:23:21.159Z,99844.38
2023-02-22T01:24:01.436Z,99845.50
2023-02-22T01:24:41.273Z,99848.53
2023-02-22T01:25:21.038Z,99847.13
2023-02-22T01:26:01.073Z,99846.31
2023-02-22T01:26:40.291Z,99838.91
2023-02-22T01:27:19.508Z,99842.16
2023-02-22T01:27:59.437Z,99837.00
2023-02-22T01:28:39.514Z,99834.28
2023-02-22T01:29:20.491Z,99832.66
2023-02-22T01:29:59.990Z,99836.19
2023-02-22T01:30:40.272Z,99834.56
2023-02-22T01:31:20.155Z,99828.81
2023-02-22T01:31:58.492Z,99831.84
2023-02-22T01:32:36.881Z,99833.75
2023-02-22T01:33:15.987Z,99835.09
2023-02-22T01:33:55.247Z,99831.84
2023-02-22T01:34:35.032Z,99823.94
2023-02-22T01:35:16.609Z,99826.16
2023-02-22T01:35:56.913Z,99819.81
2023-02-22T01:36:36.838Z,99824.75
2023-02-22T01:37:16.848Z,99822.53
2023-02-22T01:37:56.723Z,99827.19
2023-02-22T01:38:36.535Z,99821.00
2023-02-22T01:39:16.274Z,99824.75
2023-02-22T01:39:56.015Z,99820.91
2023-02-22T01:40:33.846Z,99820.41
2023-02-22T01:41:12.908Z,99815.97
2023-02-22T01:41:53.930Z,99824.16
2023-02-22T01:42:34.141Z,99817.66
2023-02-22T01:43:13.735Z,99814.94
2023-02-22T01:43:52.599Z,99820.09
2023-02-22T01:44:31.796Z,99816.25
2023-02-22T01:45:10.949Z,99813.84
2023-02-22T01:45:49.653Z,99818.09
2023-02-22T01:46:29.979Z,99810.81
2023-02-22T01:47:09.804Z,99809.69
2023-02-22T01:47:49.636Z,99806.97
2023-02-22T01:48:29.510Z,99812.13
2023-02-22T01:49:09.109Z,99815.97
2023-02-22T01:49:47.921Z,99811.00
2023-02-22T01:50:27.782Z,99813.75
2023-02-22T01:51:06.838Z,99812.63
2023-02-22T01:51:46.008Z,99811.53
2023-02-22T01:52:26.615Z,99808.28
2023-02-22T01:53:07.469Z,99806.66
2023-02-22T01:53:48.266Z,99804.75
2023-02-22T01:54:29.048Z,99805.56
2023-02-22T01:55:10.076Z,99802.31
2023-02-22T01:55:49.188Z,99796.84
2023-02-22T01:56:28.258Z,99799.28
2023-02-22T01:57:08.051Z,99802.00
2023-02-22T01:57:48.205Z,99796.03
2023-02-22T01:58:28.231Z,99792.50
2023-02-22T01:59:09.240Z,99793.59
2023-02-22T01:59:49.861Z,99795.22
2023-02-22T02:00:30.198Z,99798.78
2023-02-22T02:01:10.905Z,99795.53
2023-02-22T02:01:51.705Z,99800.69
2023-02-22T02:02:32.816Z,99796.84
2023-02-22T02:03:13.739Z,99794.41
2023-02-22T02:03:53.772Z,99796.03
2023-02-22T02:04:34.320Z,99794.13
2023-02-22T02:05:14.154Z,99795.53
2023-02-22T02:05:54.454Z,99795.81
2023-02-22T02:06:33.253Z,99789.25
2023-02-22T02:07:12.480Z,99796.84
2023-02-22T02:07:52.614Z,99792.19
2023-02-22T02:08:32.398Z,99797.44
2023-02-22T02:09:12.253Z,99789.75
2023-02-22T02:09:51.186Z,99792.19
2023-02-22T02:10:31.351Z,99794.94
2023-02-22T02:11:10.603Z,99790.28
2023-02-22T02:11:49.195Z,99797.06
2023-02-22T02:12:28.575Z,99791.38
2023-02-22T02:13:07.654Z,99792.19
2023-02-22T02:13:46.642Z,99786.13
2023-02-22T02:14:25.876Z,99791.09
2023-02-22T02:15:08.637Z,99793.00
2023-02-22T02:15:48.127Z,99786.75
2023-02-22T02:16:29.935Z,99786.13
2023-02-22T02:17:09.432Z,99789.97
2023-02-22T02:17:48.781Z,99786.75
2023-02-22T02:18:29.210Z,99785.41
2023-02-22T02:19:09.575Z,99791.38
2023-02-22T02:19:49.312Z,99796.25
2023-02-22T02:20:28.620Z,99789.75
2023-02-22T02:21:08.619Z,99787.84
2023-02-22T02:21:48.246Z,99784.50
2023-02-22T02:22:27.764Z,99786.44
2023-02-22T02:23:09.412Z,99773.69
2023-02-22T02:23:48.766Z,99785.13
2023-02-22T02:24:27.877Z,99787.25
2023-02-22T02:25:07.590Z,99791.38
2023-02-22T02:25:47.264Z,99783.41
2023-02-22T02:26:27.522Z,99780.47
2023-02-22T02:27:07.353Z,99780.47
2023-02-22T02:27:46.786Z,99784.81
2023-02-22T02:28:25.751Z,99777.44
2023-02-22T02:29:06.002Z,99776.13
2023-02-22T02:29:46.915Z,99781.28
2023-02-22T02:30:27.331Z,99783.72
2023-02-22T02:31:07.055Z,99776.94
2023-02-22T02:31:47.160Z,99775.00
2023-02-22T02:32:27.136Z,99784.31
2023-02-22T02:33:06.229Z,99775.00
2023-02-22T02:33:45.287Z,99776.63
2023-02-22T02:34:25.274Z,99779.34
2023-02-22T02:35:06.258Z,99776.72
2023-02-22T02:35:45.909Z,99778.84
2023-02-22T02:36:25.855Z,99774.78
2023-02-22T02:37:05.998Z,99778.84
2023-02-22T02:37:46.277Z,99776.94
2023-02-22T02:38:26.277Z,99773.16
2023-02-22T02:39:05.954Z,99773.38
2023-02-22T02:39:45.849Z,99770.94
2023-02-22T02:40:26.200Z,99774.50
2023-02-22T02:41:06.527Z,99776.63
2023-02-22T02:41:46.398Z,99770.94
2023-02-22T02:42:26.661Z,99777.22
2023-02-22T02:43:07.628Z,99774.19
2023-02-22T02:43:47.938Z,99774.50
2023-02-22T02:44:27.648Z,99768.44
2023-02-22T02:45:07.783Z,99772.47
2023-02-22T02:45:47.376Z,99768.44
2023-02-22T02:46:27.893Z,99774.41
2023-02-22T02:47:07.457Z,99774.19
2023-02-22T02:47:46.697Z,99772.78
2023-02-22T02:48:25.985Z,99765.69
2023-02-22T02:49:05.878Z,99772.78
2023-02-22T02:49:45.051Z,99763.28
2023-02-22T02:50:24.422Z,99765.78
2023-02-22T02:51:04.589Z,99761.66
2023-02-22T02:51:42.059Z,99760.53
2023-02-22T02:52:21.301Z,99761.34
2023-02-22T02:53:00.714Z,99766.81
2023-02-22T02:53:42.072Z,99766.22
2023-02-22T02:54:22.306Z,99768.94
2023-02-22T02:55:03.528Z,99761.66
2023-02-22T02:55:43.153Z,99762.47
2023-02-22T02:56:24.268Z,99758.31
2023-02-22T02:57:02.890Z,99760.53
2023-02-22T02:57:42.090Z,99753.75
2023-02-22T02:58:21.200Z,99766.00
2023-02-22T02:59:00.883Z,99760.25
2023-02-22T02:59:40.316Z,99759.63
2023-02-22T03:00:21.482Z,99756.69
2023-02-22T03:01:02.801Z,99751.53
2023-02-22T03:01:42.892Z,99754.28
2023-02-22T03:02:21.887Z,99753.66
2023-02-22T03:03:01.159Z,99757.75
2023-02-22T03:03:41.362Z,99750.63
2023-02-22T03:04:22.393Z,99760.03
2023-02-22T03:05:02.867Z,99753.16
2023-02-22T03:05:43.896Z,99748.81
2023-02-22T03:06:24.023Z,99753.16
2023-02-22T03:07:05.057Z,99749.31
2023-02-22T03:07:44.364Z,99751.53
2023-02-22T03:08:23.949Z,99745.25
2023-02-22T03:09:05.086Z,99753.47
2023-02-22T03:09:45.055Z,99740.63
2023-02-22T03:10:24.918Z,99750.72
2023-02-22T03:11:04.617Z,99744.25
2023-02-22T03:11:44.919Z,99747.28
2023-02-22T03:12:24.623Z,99744.47
2023-02-22T03:13:03.946Z,99743.03
2023-02-22T03:13:43.267Z,99746.88
2023-02-22T03:14:23.209Z,99746.88
2023-02-22T03:15:05.741Z,99753.16
2023-02-22T03:15:45.152Z,99747.69
2023-02-22T03:16:26.592Z,99743.84
2023-02-22T03:17:07.466Z,99748.50
2023-02-22T03:17:48.617Z,99746.38
2023-02-22T03:18:27.858Z,99736.25
2023-02-22T03:19:07.121Z,99740.09
2023-02-22T03:19:47.316Z,99744.47
2023-02-22T03:20:27.160Z,99742.31
2023-02-22T03:21:06.711Z,99739.81
2023-02-22T03:21:47.175Z,99744.75
2023-02-22T03:22:26.785Z,99743.44
2023-02-22T03:23:06.821Z,99737.47
2023-02-22T03:23:45.765Z,99735.75
2023-02-22T03:24:25.035Z,99737.38
2023-02-22T03:25:04.208Z,99737.69
2023-02-22T03:25:44.508Z,99738.47
2023-02-22T03:26:25.199Z,99739.00
2023-02-22T03:27:04.175Z,99736.25
2023-02-22T03:27:43.200Z,99736.25
2023-02-22T03:28:23.221Z,99731.91
2023-02-22T03:29:04.140Z,99733.03
2023-02-22T03:29:44.113Z,99731.09
2023-02-22T03:30:24.144Z,99730.81
2023-02-22T03:31:05.097Z,99735.16
2023-02-22T03:31:45.897Z,99730.50
2023-02-22T03:32:25.128Z,99733.75
2023-02-22T03:33:04.415Z,99724.84
2023-02-22T03:33:43.965Z,99724.84
2023-02-22T03:34:23.907Z,99728.66
2023-02-22T03:35:03.908Z,99726.44
2023-02-22T03:35:45.157Z,99721.59
2023-02-22T03:36:25.085Z,99719.38
2023-02-22T03:37:04.631Z,99722.91
2023-02-22T03:37:44.094Z,99728.06
2023-02-22T03:38:25.336Z,99724.03
2023-02-22T03:39:06.708Z,99725.34
2023-02-22T03:39:47.122Z,99721.81
2023-02-22T03:40:28.019Z,99725.84
2023-02-22T03:41:07.644Z,99720.19
2023-02-22T03:41:48.754Z,99724.53
2023-02-22T03:42:26.922Z,99718.25
2023-02-22T03:43:06.303Z,99725.34
2023-02-22T03:43:45.397Z,99722.63
2023-02-22T03:44:25.373Z,99721.50
2023-02-22T03:45:09.715Z,99721.50
2023-02-22T03:45:49.174Z,99721.81
2023-02-22T03:46:31.103Z,99725.84
2023-02-22T03:47:11.740Z,99722.31
2023-02-22T03:47:50.272Z,99713.59
2023-02-22T03:48:29.588Z,99721.00
2023-02-22T03:49:09.724Z,99718.47
2023-02-22T03:49:49.883Z,99716.03
2023-02-22T03:50:30.936Z,99713.59
2023-02-22T03:51:10.264Z,99713.59
2023-02-22T03:51:49.551Z,99722.31
2023-02-22T03:52:27.852Z,99714.13
2023-02-22T03:53:09.117Z,99720.19
2023-02-22T03:53:50.311Z,99714.13
2023-02-22T03:54:31.273Z,99716.53
2023-02-22T03:55:10.661Z,99716.53
2023-02-22T03:55:50.048Z,99714.63
2023-02-22T03:56:33.269Z,99713.31
2023-02-22T03:57:13.463Z,99715.44
2023-02-22T03:57:53.864Z,99713.00
2023-02-22T03:58:33.713Z,99707.25
2023-02-22T03:59:13.580Z,99705.63
2023-02-22T03:59:53.246Z,99715.44
2023-02-22T04:00:33.481Z,99713.59
2023-02-22T04:01:14.037Z,99713.59
2023-02-22T04:01:54.612Z,99706.81
2023-02-22T04:02:38.916Z,99708.97
2023-02-22T04:03:17.813Z,99710.88
2023-02-22T04:03:56.990Z,99714.22
2023-02-22T04:04:36.945Z,99706.22
2023-02-22T04:05:16.697Z,99714.94
2023-02-22T04:05:56.728Z,99708.44
2023-02-22T04:06:36.800Z,99710.06
2023-02-22T04:07:16.839Z,99703.00
2023-02-22T04:07:56.929Z,99711.69
2023-02-22T04:08:36.574Z,99711.19
2023-02-22T04:09:15.752Z,99702.19
2023-02-22T04:09:55.755Z,99705.72
2023-02-22T04:10:35.932Z,99716.63
2023-02-22T04:11:16.006Z,99706.22
2023-02-22T04:11:55.868Z,99706.22
2023-02-22T04:12:36.948Z,99706.22
2023-02-22T04:13:16.409Z,99703.78
2023-02-22T04:13:55.916Z,99703.50
2023-02-22T04:14:35.648Z,99705.13
2023-02-22T04:15:15.482Z,99708.44
2023-02-22T04:15:54.789Z,99708.75
2023-02-22T04:16:35.070Z,99699.75
2023-02-22T04:17:14.056Z,99712.59
2023-02-22T04:17:53.069Z,99705.50
2023-02-22T04:18:32.118Z,99710.66
2023-02-22T04:19:10.895Z,99704.09
2023-02-22T04:19:49.850Z,99705.22
2023-02-22T04:20:29.715Z,99706.81
2023-02-22T04:21:09.684Z,99702.69
2023-02-22T04:21:49.219Z,99701.88
2023-02-22T04:22:30.164Z,99700.75
2023-02-22T04:23:09.347Z,99702.19
2023-02-22T04:23:48.998Z,99706.31
2023-02-22T04:24:30.538Z,99700.84
2023-02-22T04:25:09.004Z,99709.56
2023-02-22T04:25:47.849Z,99715.03
2023-02-22T04:26:27.369Z,99703.78
2023-02-22T04:27:06.732Z,99701.88
2023-02-22T04:27:46.968Z,99703.59
2023-02-22T04:28:26.627Z,99708.53
2023-02-22T04:29:06.284Z,99703.00
2023-02-22T04:29:44.689Z,99702.78
2023-02-22T04:30:23.816Z,99703.28
2023-02-22T04:31:03.436Z,99701.38
2023-02-22T04:31:42.641Z,99700.84
2023-02-22T04:32:21.098Z,99701.38
2023-02-22T04:33:00.919Z,99697.53
2023-02-22T04:33:40.123Z,99698.13
2023-02-22T04:34:19.085Z,99697.03
2023-02-22T04:34:57.373Z,99704.91
2023-02-22T04:35:36.895Z,99700.56
2023-02-22T04:36:17.805Z,99697.53
2023-02-22T04:36:57.725Z,99699.16
2023-02-22T04:37:37.737Z,99699.16
2023-02-22T04:38:17.404Z,99694.00
2023-02-22T04:38:57.139Z,99695.09
2023-02-22T04:39:36.900Z,99700.34
2023-02-22T04:40:16.656Z,99694.28
2023-02-22T04:40:55.978Z,99698.63
2023-02-22T04:41:37.446Z,99692.16
2023-02-22T04:42:18.487Z,99695.91
2023-02-22T04:42:58.426Z,99689.63
2023-02-22T04:43:38.400Z,99688.31
2023-02-22T04:44:18.282Z,99691.56
2023-02-22T04:44:57.843Z,99695.69
2023-02-22T04:45:38.033Z,99689.63
2023-02-22T04:46:16.874Z,99683.16
2023-02-22T04:46:56.616Z,99687.22
2023-02-22T04:47:35.737Z,99691.56
2023-02-22T04:48:14.498Z,99693.47
2023-02-22T04:48:53.143Z,99685.59
2023-02-22T04:49:33.141Z,99687.50
2023-02-22T04:50:12.570Z,99691.06
2023-02-22T04:50:52.384Z,99683.06
2023-02-22T04:51:31.856Z,99684.47
2023-02-22T04:52:12.754Z,99687.22
2023-02-22T04:52:52.177Z,99683.06
2023-02-22T04:53:33.121Z,99689.63
2023-02-22T04:54:13.239Z,99682.03
2023-02-22T04:54:53.808Z,99680.63
2023-02-22T04:55:37.682Z,99681.94
2023-02-22T04:56:17.373Z,99677.91
2023-02-22T04:56:57.550Z,99684.28
2023-02-22T04:57:37.303Z,99682.94
2023-02-22T04:58:15.778Z,99681.75
2023-02-22T04:58:54.598Z,99680.13
2023-02-22T04:59:34.462Z,99680.13
2023-02-22T05:00:14.257Z,99683.66
2023-02-22T05:00:53.254Z,99674.88
2023-02-22T05:01:33.233Z,99680.34
2023-02-22T05:02:12.895Z,99678.72
2023-02-22T05:02:52.169Z,99668.91
2023-02-22T05:03:31.376Z,99666.97
2023-02-22T05:04:10.390Z,99672.75
2023-02-22T05:04:50.287Z,99674.16
2023-02-22T05:05:30.063Z,99674.97
2023-02-22T05:06:11.181Z,99669.31
2023-02-22T05:06:50.182Z,99671.22
2023-02-22T05:07:29.219Z,99671.72
2023-02-22T05:08:09.154Z,99667.59
2023-02-22T05:08:47.732Z,99665.16
2023-02-22T05:09:26.439Z,99668.69
2023-02-22T05:10:06.056Z,99666.78
2023-02-22T05:10:45.302Z,99669.00
2023-02-22T05:11:23.714Z,99678.72
2023-02-22T05:12:03.636Z,99665.06
2023-02-22T05:12:42.911Z,99668.41
2023-02-22T05:13:23.511Z,99659.69
2023-02-22T05:14:01.916Z,99657.28
2023-02-22T05:14:41.327Z,99666.78
2023-02-22T05:15:20.954Z,99665.16
2023-02-22T05:16:02.231Z,99660.50
2023-02-22T05:16:41.670Z,99660.72
2023-02-22T05:17:21.765Z,99661.00
2023-02-22T05:18:02.807Z,99661.00
2023-02-22T05:18:43.915Z,99665.97
2023-02-22T05:19:23.982Z,99659.69
2023-02-22T05:20:03.241Z,99653.72
2023-02-22T05:20:43.281Z,99658.28
2023-02-22T05:21:23.314Z,99657.47
2023-02-22T05:22:03.104Z,99658.06
2023-02-22T05:22:44.040Z,99655.56
2023-02-22T05:23:23.681Z,99655.84
2023-02-22T05:24:02.521Z,99657.47
2023-02-22T05:24:42.836Z,99652.00
2023-02-22T05:25:23.420Z,99649.59
2023-02-22T05:26:03.357Z,99649.59
2023-02-22T05:26:43.539Z,99652.63
2023-02-22T05:27:24.529Z,99649.28
2023-02-22T05:28:03.699Z,99656.38
2023-02-22T05:28:45.982Z,99647.16
2023-02-22T05:29:25.767Z,99649.88
2023-02-22T05:30:08.125Z,99650.41
2023-02-22T05:30:47.623Z,99651.22
2023-02-22T05:31:28.514Z,99644.63
2023-02-22T05:32:09.583Z,99650.59
2023-02-22T05:32:50.756Z,99644.94
2023-02-22T05:33:31.182Z,99647.66
2023-02-22T05:34:10.417Z,99644.13
2023-02-22T05:34:51.334Z,99643.53
2023-02-22T05:35:31.462Z,99646.56
2023-02-22T05:36:11.266Z,99651.22
2023-02-22T05:36:51.307Z,99649.09
2023-02-22T05:37:32.001Z,99648.16
2023-02-22T05:38:12.216Z,99645.13
2023-02-22T05:38:51.794Z,99647.06
2023-02-22T05:39:31.283Z,99649.50
2023-02-22T05:40:12.090Z,99646.16
2023-02-22T05:40:52.560Z,99640.19
2023-02-22T05:41:32.575Z,99644.63
2023-02-22T05:42:13.817Z,99644.94
2023-02-22T05:42:54.596Z,99645.75
2023-02-22T05:43:34.401Z,99640.28
2023-02-22T05:44:13.598Z,99644.22
2023-02-22T05:44:52.674Z,99650.41
2023-02-22T05:45:32.410Z,99641.91
2023-02-22T05:46:12.354Z,99644.13
2023-02-22T05:46:53.474Z,99643.81
2023-02-22T05:47:34.094Z,99649.59
2023-02-22T05:48:14.342Z,99644.13
2023-02-22T05:48:55.232Z,99641.41
2023-02-22T05:49:34.829Z,99644.94
2023-02-22T05:50:14.032Z,99643.53
2023-02-22T05:50:53.771Z,99639.16
2023-02-22T05:51:33.750Z,99641.28
2023-02-22T05:52:14.976Z,99644.84
2023-02-22T05:52:54.398Z,99644.63
2023-02-22T05:53:34.565Z,99641.28
2023-02-22T05:54:14.423Z,99653.63
2023-02-22T05:54:53.684Z,99639.97
2023-02-22T05:55:33.116Z,99643.22
2023-02-22T05:56:13.795Z,99640.50
2023-02-22T05:56:53.630Z,99645.94
2023-02-22T05:57:33.898Z,99645.66
2023-02-22T05:58:14.846Z,99642.72
2023-02-22T05:58:55.930Z,99641.91
2023-02-22T05:59:36.831Z,99645.13
2023-02-22T06:00:16.050Z,99646.75
2023-02-22T06:00:55.296Z,99645.13
2023-02-22T06:01:36.457Z,99640.78
2023-02-22T06:02:16.155Z,99645.44
2023-02-22T06:02:56.568Z,99648.16
2023-02-22T06:03:36.371Z,99644.34
2023-02-22T06:04:17.322Z,99638.06
2023-02-22T06:04:57.106Z,99638.06
2023-02-22T06:05:36.303Z,99635.63
2023-02-22T06:06:15.737Z,99644.34
2023-02-22T06:06:55.492Z,99638.38
2023-02-22T06:07:35.517Z,99638.88
2023-02-22T06:08:15.576Z,99627.75
2023-02-22T06:08:55.278Z,99639.47
2023-02-22T06:09:35.096Z,99644.44
2023-02-22T06:10:14.940Z,99648.97
2023-02-22T06:10:54.384Z,99643.00
2023-02-22T06:11:33.327Z,99644.13
2023-02-22T06:12:12.384Z,99647.06
2023-02-22T06:12:52.205Z,99641.28
2023-02-22T06:13:31.181Z,99643.53
2023-02-22T06:14:11.059Z,99635.31
2023-02-22T06:14:50.006Z,99641.69
2023-02-22T06:15:29.534Z,99647.88
2023-02-22T06:16:07.777Z,99647.66
2023-02-22T06:16:46.822Z,99643.63
2023-02-22T06:17:26.471Z,99640.88
2023-02-22T06:18:06.372Z,99647.66
2023-02-22T06:18:46.731Z,99644.94
2023-02-22T06:19:27.347Z,99641.91
2023-02-22T06:20:07.241Z,99648.16
2023-02-22T06:20:48.125Z,99647.06
2023-02-22T06:21:27.263Z,99645.66
2023-02-22T06:22:06.614Z,99650.91
2023-02-22T06:22:46.577Z,99651.22
2023-02-22T06:23:26.175Z,99654.44
2023-02-22T06:24:06.731Z,99650.41
2023-02-22T06:24:47.611Z,99645.44
2023-02-22T06:25:27.634Z,99650.41
2023-02-22T06:26:08.179Z,99649.28
2023-02-22T06:26:48.111Z,99650.41
2023-02-22T06:27:27.545Z,99648.97
2023-02-22T06:28:07.038Z,99652.63
2023-02-22T06:28:46.422Z,99647.97
2023-02-22T06:29:24.952Z,99646.34
2023-02-22T06:30:06.521Z,99654.44
2023-02-22T06:30:45.723Z,99651.41
2023-02-22T06:31:25.261Z,99651.41
2023-02-22T06:32:06.405Z,99656.97
2023-02-22T06:32:47.508Z,99646.56
2023-02-22T06:33:28.415Z,99656.38
2023-02-22T06:34:08.546Z,99652.31
2023-02-22T06:34:48.973Z,99652.81
2023-02-22T06:35:28.962Z,99658.06
2023-02-22T06:36:09.519Z,99660.50
2023-02-22T06:36:49.759Z,99669.31
2023-02-22T06:37:29.217Z,99655.16
2023-02-22T06:38:09.016Z,99660.31
2023-02-22T06:38:48.765Z,99660.31
2023-02-22T06:39:28.531Z,99663.53
2023-02-22T06:40:05.740Z,99660.31
2023-02-22T06:40:41.229Z,99657.78
2023-02-22T06:41:21.219Z,99656.38
2023-02-22T06:42:01.240Z,99659.09
2023-02-22T06:42:40.701Z,99666.47
2023-02-22T06:43:20.557Z,99659.41
2023-02-22T06:43:59.873Z,99653.94
2023-02-22T06:44:40.900Z,99660.72
2023-02-22T06:45:19.063Z,99651.00
2023-02-22T06:45:58.086Z,99662.22
2023-02-22T06:46:38.191Z,99658.19
2023-02-22T06:47:18.044Z,99661.41
2023-02-22T06:47:57.726Z,99650.41
2023-02-22T06:48:37.661Z,99654.75
2023-02-22T06:49:18.922Z,99658.59
2023-02-22T06:49:59.722Z,99660.00
2023-02-22T06:50:38.373Z,99666.28
2023-02-22T06:51:17.756Z,99661.72
2023-02-22T06:51:57.386Z,99662.22
2023-02-22T06:52:38.672Z,99658.69
2023-02-22T06:53:18.717Z,99659.50
2023-02-22T06:53:58.778Z,99657.47
2023-02-22T06:54:40.095Z,99650.19
2023-02-22T06:55:21.061Z,99658.69
2023-02-22T06:56:00.719Z,99658.97
2023-02-22T06:56:40.222Z,99655.66
2023-02-22T06:57:20.440Z,99657.88
2023-02-22T06:57:59.787Z,99650.91
2023-02-22T06:58:39.441Z,99651.00
2023-02-22T06:59:18.695Z,99655.44
2023-02-22T06:59:57.922Z,99656.56
2023-02-22T07:00:39.036Z,99652.91
2023-02-22T07:01:18.476Z,99658.69
2023-02-22T07:01:57.122Z,99651.59
2023-02-22T07:02:36.476Z,99650.19
2023-02-22T07:03:15.880Z,99655.84
2023-02-22T07:03:55.542Z,99652.63
2023-02-22T07:04:36.132Z,99657.88
2023-02-22T07:05:15.573Z,99650.19
2023-02-22T07:05:55.595Z,99648.28
2023-02-22T07:06:34.460Z,99652.13
2023-02-22T07:07:13.594Z,99654.84
2023-02-22T07:07:54.198Z,99653.72
2023-02-22T07:08:34.013Z,99656.97
2023-02-22T07:09:14.120Z,99663.34
2023-02-22T07:09:53.259Z,99656.75
2023-02-22T07:10:33.345Z,99664.44
2023-02-22T07:11:12.292Z,99657.88
2023-02-22T07:11:51.428Z,99657.88
2023-02-22T07:12:30.429Z,99661.22
2023-02-22T07:13:10.361Z,99661.22
2023-02-22T07:13:51.028Z,99660.69
2023-02-22T07:14:30.950Z,99659.59
2023-02-22T07:15:11.258Z,99660.09
2023-02-22T07:15:52.658Z,99656.84
2023-02-22T07:16:33.276Z,99665.56
2023-02-22T07:17:12.977Z,99659.78
2023-02-22T07:17:51.618Z,99658.69
2023-02-22T07:18:31.504Z,99657.28
2023-02-22T07:19:12.757Z,99655.44
2023-02-22T07:19:52.307Z,99667.19
2023-02-22T07:20:31.963Z,99656.56
2023-02-22T07:21:11.883Z,99660.09
2023-02-22T07:21:51.593Z,99659.28
2023-02-22T07:22:29.899Z,99658.69
2023-02-22T07:23:08.855Z,99651.00
2023-02-22T07:23:49.078Z,99657.78
2023-02-22T07:24:29.832Z,99651.50
2023-02-22T07:25:11.155Z,99661.41
2023-02-22T07:25:50.958Z,99657.88
2023-02-22T07:26:31.259Z,99661.22
2023-02-22T07:27:12.081Z,99657.06
2023-02-22T07:27:51.311Z,99656.97
2023-02-22T07:28:30.841Z,99657.47
2023-02-22T07:29:12.258Z,99658.06
2023-02-22T07:29:53.301Z,99660.00
2023-02-22T07:30:35.303Z,99647.66
2023-02-22T07:31:14.177Z,99655.84
2023-02-22T07:31:53.857Z,99649.59
2023-02-22T07:32:32.895Z,99657.28
2023-02-22T07:33:11.893Z,99654.44
2023-02-22T07:33:51.313Z,99652.63
2023-02-22T07:34:30.883Z,99654.53
2023-02-22T07:35:09.570Z,99649.59
2023-02-22T07:35:50.347Z,99651.72
2023-02-22T07:36:29.513Z,99650.41
2023-02-22T07:37:08.678Z,99652.31
2023-02-22T07:37:48.474Z,99651.72
2023-02-22T07:38:25.380Z,99652.81
2023-02-22T07:39:00.518Z,99653.31
2023-02-22T07:39:40.796Z,99657.97
2023-02-22T07:40:22.006Z,99653.63
2023-02-22T07:41:02.505Z,99652.31
2023-02-22T07:41:43.259Z,99652.63
2023-02-22T07:42:23.284Z,99649.69
2023-02-22T07:43:02.736Z,99654.84
2023-02-22T07:43:42.235Z,99656.47
2023-02-22T07:44:21.322Z,99650.19
2023-02-22T07:45:02.160Z,99655.34
2023-02-22T07:45:40.530Z,99657.97
2023-02-22T07:46:20.774Z,99655.03
2023-02-22T07:46:59.944Z,99655.56
2023-02-22T07:47:39.016Z,99659.09
2023-02-22T07:48:18.766Z,99666.78